createdAt,value
2017-08-02T00:00:24.084Z,1013.38
2017-08-02T00:01:24.439Z,1013.33
2017-08-02T00:02:24.471Z,1013.37
2017-08-02T00:03:24.510Z,1013.38
2017-08-02T00:04:24.897Z,1013.39
2017-08-02T00:05:24.606Z,1013.34
2017-08-02T00:06:24.933Z,1013.36
2017-08-02T00:07:24.969Z,1013.33
2017-08-02T00:08:25.005Z,1013.36
2017-08-02T00:09:25.040Z,1013.35
2017-08-02T00:10:25.077Z,1013.32
2017-08-02T00:11:25.117Z,1013.28
2017-08-02T00:12:25.463Z,1013.23
2017-08-02T00:13:25.510Z,1013.19
2017-08-02T00:14:25.867Z,1013.18
2017-08-02T00:15:25.901Z,1013.21
2017-08-02T00:16:25.936Z,1013.24
2017-08-02T00:17:26.270Z,1013.22
2017-08-02T00:18:26.303Z,1013.24
2017-08-02T00:19:26.338Z,1013.25
2017-08-02T00:20:26.379Z,1013.21
2017-08-02T00:21:26.701Z,1013.19
2017-08-02T00:22:26.740Z,1013.17
2017-08-02T00:23:26.776Z,1013.17
2017-08-02T00:24:26.811Z,1013.18
2017-08-02T00:25:27.210Z,1013.23
2017-08-02T00:26:27.244Z,1013.25
2017-08-02T00:27:27.282Z,1013.27
2017-08-02T00:28:27.319Z,1013.31
2017-08-02T00:29:27.357Z,1013.31
2017-08-02T00:30:27.394Z,1013.3
2017-08-02T00:31:27.685Z,1013.31
2017-08-02T00:32:27.721Z,1013.28
2017-08-02T00:33:27.758Z,1013.26
2017-08-02T00:34:27.795Z,1013.23
2017-08-02T00:35:27.832Z,1013.27
2017-08-02T00:36:27.871Z,1013.3
2017-08-02T00:37:27.904Z,1013.3
2017-08-02T00:38:27.963Z,1013.36
2017-08-02T00:39:27.979Z,1013.32
2017-08-02T00:40:28.016Z,1013.31
2017-08-02T00:41:28.054Z,1013.28
2017-08-02T00:42:28.091Z,1013.28
2017-08-02T00:43:28.132Z,1013.26
2017-08-02T00:44:28.164Z,1013.29
2017-08-02T00:45:28.206Z,1013.27
2017-08-02T00:46:28.240Z,1013.29
2017-08-02T00:47:28.280Z,1013.32
2017-08-02T00:48:28.315Z,1013.25
2017-08-02T00:49:28.370Z,1013.23
2017-08-02T00:50:28.672Z,1013.2
2017-08-02T00:51:28.731Z,1013.23
2017-08-02T00:52:28.745Z,1013.2
2017-08-02T00:53:29.087Z,1013.18
2017-08-02T00:54:29.125Z,1013.15
2017-08-02T00:55:29.163Z,1013.12
2017-08-02T00:56:29.196Z,1013.1
2017-08-02T00:57:29.233Z,1013.08
2017-08-02T00:58:29.276Z,1013.08
2017-08-02T00:59:29.329Z,1013.1
2017-08-02T01:00:29.645Z,1013.1
2017-08-02T01:01:29.682Z,1013.08
2017-08-02T01:02:29.722Z,1013.1
2017-08-02T01:03:29.752Z,1013.11
2017-08-02T01:04:29.791Z,1013.11
2017-08-02T01:05:29.830Z,1013.06
2017-08-02T01:06:29.866Z,1013.05
2017-08-02T01:07:29.902Z,1013.06
2017-08-02T01:08:29.941Z,1013.05
2017-08-02T01:09:29.975Z,1013
2017-08-02T01:10:30.016Z,1013
2017-08-02T01:11:30.050Z,1012.98
2017-08-02T01:12:30.086Z,1013.06
2017-08-02T01:13:30.144Z,1013.07
2017-08-02T01:14:30.162Z,1013.02
2017-08-02T01:15:30.589Z,1013.03
2017-08-02T01:16:30.627Z,1013.06
2017-08-02T01:17:30.955Z,1013.08
2017-08-02T01:18:30.987Z,1013.19
2017-08-02T01:19:31.026Z,1013.19
2017-08-02T01:20:31.066Z,1013.22
2017-08-02T01:21:31.100Z,1013.18
2017-08-02T01:22:31.136Z,1013.17
2017-08-02T01:23:31.172Z,1013.14
2017-08-02T01:24:31.207Z,1013.15
2017-08-02T01:25:31.531Z,1013.21
2017-08-02T01:26:31.567Z,1013.25
2017-08-02T01:27:31.633Z,1013.21
2017-08-02T01:28:31.645Z,1013.3
2017-08-02T01:29:31.675Z,1013.24
2017-08-02T01:30:31.719Z,1013.25
2017-08-02T01:31:31.751Z,1013.24
2017-08-02T01:32:32.113Z,1013.24
2017-08-02T01:33:32.433Z,1013.27
2017-08-02T01:34:32.465Z,1013.3
2017-08-02T01:35:32.505Z,1013.31
2017-08-02T01:36:32.545Z,1013.35
2017-08-02T01:37:32.577Z,1013.31
2017-08-02T01:38:32.620Z,1013.32
2017-08-02T01:39:32.673Z,1013.3
2017-08-02T01:40:32.687Z,1013.26
2017-08-02T01:41:32.750Z,1013.27
2017-08-02T01:42:32.782Z,1013.29
2017-08-02T01:43:32.821Z,1013.26
2017-08-02T01:44:33.182Z,1013.28
2017-08-02T01:45:33.219Z,1013.27
2017-08-02T01:46:33.255Z,1013.32
2017-08-02T01:47:33.591Z,1013.32
2017-08-02T01:48:33.941Z,1013.33
2017-08-02T01:49:33.975Z,1013.33
2017-08-02T01:50:33.995Z,1013.32
2017-08-02T01:51:34.353Z,1013.33
2017-08-02T01:52:34.388Z,1013.31
2017-08-02T01:53:34.428Z,1013.26
2017-08-02T01:54:34.464Z,1013.33
2017-08-02T01:55:34.501Z,1013.29
2017-08-02T01:56:34.537Z,1013.32
2017-08-02T01:57:34.574Z,1013.37
2017-08-02T01:58:34.609Z,1013.41
2017-08-02T01:59:34.646Z,1013.4
2017-08-02T02:00:34.679Z,1013.38
2017-08-02T02:01:34.729Z,1013.4
2017-08-02T02:02:34.777Z,1013.43
2017-08-02T02:03:34.795Z,1013.4
2017-08-02T02:04:34.832Z,1013.46
2017-08-02T02:05:34.890Z,1013.43
2017-08-02T02:06:34.902Z,1013.43
2017-08-02T02:07:34.940Z,1013.49
2017-08-02T02:08:34.975Z,1013.53
2017-08-02T02:09:35.034Z,1013.51
2017-08-02T02:10:35.046Z,1013.55
2017-08-02T02:11:35.382Z,1013.48
2017-08-02T02:12:35.422Z,1013.54
2017-08-02T02:13:35.477Z,1013.54
2017-08-02T02:14:35.490Z,1013.55
2017-08-02T02:15:35.527Z,1013.55
2017-08-02T02:16:35.563Z,1013.56
2017-08-02T02:17:35.602Z,1013.55
2017-08-02T02:18:35.640Z,1013.58
2017-08-02T02:19:35.672Z,1013.53
2017-08-02T02:20:35.707Z,1013.59
2017-08-02T02:21:35.750Z,1013.58
2017-08-02T02:22:35.787Z,1013.58
2017-08-02T02:23:35.820Z,1013.59
2017-08-02T02:24:35.855Z,1013.59
2017-08-02T02:25:36.192Z,1013.58
2017-08-02T02:26:36.232Z,1013.59
2017-08-02T02:27:36.557Z,1013.56
2017-08-02T02:28:36.589Z,1013.59
2017-08-02T02:29:36.634Z,1013.55
2017-08-02T02:30:36.663Z,1013.51
2017-08-02T02:31:36.697Z,1013.52
2017-08-02T02:32:36.735Z,1013.55
2017-08-02T02:33:36.780Z,1013.51
2017-08-02T02:34:36.809Z,1013.54
2017-08-02T02:35:36.844Z,1013.54
2017-08-02T02:36:37.160Z,1013.54
2017-08-02T02:37:37.195Z,1013.55
2017-08-02T02:38:37.235Z,1013.55
2017-08-02T02:39:37.555Z,1013.53
2017-08-02T02:40:37.589Z,1013.53
2017-08-02T02:41:37.626Z,1013.53
2017-08-02T02:42:37.663Z,1013.56
2017-08-02T02:43:37.697Z,1013.59
2017-08-02T02:44:37.984Z,1013.56
2017-08-02T02:45:38.037Z,1013.57
2017-08-02T02:46:38.050Z,1013.6
2017-08-02T02:47:38.091Z,1013.62
2017-08-02T02:48:38.127Z,1013.65
2017-08-02T02:49:38.162Z,1013.63
2017-08-02T02:50:38.198Z,1013.66
2017-08-02T02:51:38.241Z,1013.68
2017-08-02T02:52:38.274Z,1013.65
2017-08-02T02:53:38.308Z,1013.61
2017-08-02T02:54:38.361Z,1013.65
2017-08-02T02:55:38.382Z,1013.65
2017-08-02T02:56:38.420Z,1013.71
2017-08-02T02:57:38.757Z,1013.64
2017-08-02T02:58:38.793Z,1013.68
2017-08-02T02:59:38.829Z,1013.73
2017-08-02T03:00:38.865Z,1013.73
2017-08-02T03:01:38.926Z,1013.73
2017-08-02T03:02:38.940Z,1013.76
2017-08-02T03:03:38.977Z,1013.8
2017-08-02T03:04:39.013Z,1013.79
2017-08-02T03:05:39.073Z,1013.81
2017-08-02T03:06:39.406Z,1013.8
2017-08-02T03:07:39.440Z,1013.84
2017-08-02T03:08:39.477Z,1013.82
2017-08-02T03:09:39.534Z,1013.87
2017-08-02T03:10:39.841Z,1013.82
2017-08-02T03:11:39.877Z,1013.89
2017-08-02T03:12:39.919Z,1013.83
2017-08-02T03:13:40.268Z,1013.86
2017-08-02T03:14:40.282Z,1013.81
2017-08-02T03:15:40.321Z,1013.84
2017-08-02T03:16:40.358Z,1013.86
2017-08-02T03:17:40.400Z,1013.83
2017-08-02T03:18:40.430Z,1013.83
2017-08-02T03:19:40.464Z,1013.87
2017-08-02T03:20:40.827Z,1013.85
2017-08-02T03:21:40.858Z,1013.85
2017-08-02T03:22:40.897Z,1013.88
2017-08-02T03:23:41.218Z,1013.84
2017-08-02T03:24:41.545Z,1013.82
2017-08-02T03:25:41.609Z,1013.83
2017-08-02T03:26:41.616Z,1013.83
2017-08-02T03:27:41.657Z,1013.84
2017-08-02T03:28:41.711Z,1013.88
2017-08-02T03:29:41.723Z,1013.9
2017-08-02T03:30:41.759Z,1013.85
2017-08-02T03:31:41.796Z,1013.84
2017-08-02T03:32:41.834Z,1013.86
2017-08-02T03:33:41.866Z,1013.83
2017-08-02T03:34:41.929Z,1013.79
2017-08-02T03:35:41.962Z,1013.77
2017-08-02T03:36:42.270Z,1013.81
2017-08-02T03:37:42.310Z,1013.78
2017-08-02T03:38:42.345Z,1013.83
2017-08-02T03:39:42.378Z,1013.84
2017-08-02T03:40:42.416Z,1013.82
2017-08-02T03:41:42.761Z,1013.86
2017-08-02T03:42:43.089Z,1013.91
2017-08-02T03:43:43.122Z,1013.92
2017-08-02T03:44:43.465Z,1013.97
2017-08-02T03:45:43.502Z,1014.01
2017-08-02T03:46:43.559Z,1014.07
2017-08-02T03:47:43.571Z,1014.01
2017-08-02T03:48:43.610Z,1014.05
2017-08-02T03:49:43.647Z,1014.1
2017-08-02T03:50:43.684Z,1014.12
2017-08-02T03:51:43.718Z,1014.15
2017-08-02T03:52:43.755Z,1014.14
2017-08-02T03:53:43.790Z,1014.14
2017-08-02T03:54:43.826Z,1014.21
2017-08-02T03:55:43.861Z,1014.24
2017-08-02T03:56:43.923Z,1014.28
2017-08-02T03:57:43.935Z,1014.3
2017-08-02T03:58:43.969Z,1014.35
2017-08-02T03:59:44.012Z,1014.35
2017-08-02T04:00:44.054Z,1014.36
2017-08-02T04:01:44.154Z,1014.37
2017-08-02T04:02:44.125Z,1014.37
2017-08-02T04:03:44.162Z,1014.42
2017-08-02T04:04:44.194Z,1014.4
2017-08-02T04:05:44.235Z,1014.39
2017-08-02T04:06:44.269Z,1014.39
2017-08-02T04:07:44.304Z,1014.36
2017-08-02T04:08:44.342Z,1014.33
2017-08-02T04:09:44.374Z,1014.32
2017-08-02T04:10:44.411Z,1014.38
2017-08-02T04:11:44.833Z,1014.38
2017-08-02T04:12:44.866Z,1014.36
2017-08-02T04:13:44.900Z,1014.38
2017-08-02T04:14:44.998Z,1014.41
2017-08-02T04:15:45.040Z,1014.38
2017-08-02T04:16:45.074Z,1014.42
2017-08-02T04:17:45.112Z,1014.46
2017-08-02T04:18:45.146Z,1014.46
2017-08-02T04:19:45.184Z,1014.48
2017-08-02T04:20:45.220Z,1014.49
2017-08-02T04:21:45.649Z,1014.48
2017-08-02T04:22:46.092Z,1014.44
2017-08-02T04:23:46.510Z,1014.51
2017-08-02T04:24:46.917Z,1014.52
2017-08-02T04:25:46.955Z,1014.56
2017-08-02T04:26:46.991Z,1014.63
2017-08-02T04:27:47.101Z,1014.59
2017-08-02T04:28:47.144Z,1014.6
2017-08-02T04:29:47.168Z,1014.6
2017-08-02T04:30:47.208Z,1014.59
2017-08-02T04:31:47.246Z,1014.54
2017-08-02T04:32:47.278Z,1014.6
2017-08-02T04:33:47.316Z,1014.6
2017-08-02T04:34:47.353Z,1014.62
2017-08-02T04:35:47.385Z,1014.62
2017-08-02T04:36:47.424Z,1014.62
2017-08-02T04:37:47.463Z,1014.58
2017-08-02T04:38:47.893Z,1014.56
2017-08-02T04:39:47.925Z,1014.56
2017-08-02T04:40:47.962Z,1014.61
2017-08-02T04:41:48.002Z,1014.61
2017-08-02T04:42:48.036Z,1014.6
2017-08-02T04:43:48.070Z,1014.59
2017-08-02T04:44:48.112Z,1014.63
2017-08-02T04:45:48.149Z,1014.58
2017-08-02T04:46:48.183Z,1014.62
2017-08-02T04:47:48.629Z,1014.62
2017-08-02T04:48:49.074Z,1014.59
2017-08-02T04:49:49.502Z,1014.58
2017-08-02T04:50:49.541Z,1014.57
2017-08-02T04:51:49.583Z,1014.57
2017-08-02T04:52:49.611Z,1014.46
2017-08-02T04:53:49.649Z,1014.48
2017-08-02T04:54:49.682Z,1014.43
2017-08-02T04:55:49.720Z,1014.39
2017-08-02T04:56:50.156Z,1014.4
2017-08-02T04:57:50.191Z,1014.41
2017-08-02T04:58:50.232Z,1014.42
2017-08-02T04:59:50.264Z,1014.47
2017-08-02T05:00:50.307Z,1014.47
2017-08-02T05:01:50.494Z,1014.49
2017-08-02T05:02:50.401Z,1014.55
2017-08-02T05:03:50.414Z,1014.51
2017-08-02T05:04:50.453Z,1014.56
2017-08-02T05:05:50.493Z,1014.55
2017-08-02T05:06:50.522Z,1014.52
2017-08-02T05:07:50.558Z,1014.55
2017-08-02T05:08:50.977Z,1014.57
2017-08-02T05:09:51.394Z,1014.62
2017-08-02T05:10:51.431Z,1014.63
2017-08-02T05:11:51.470Z,1014.67
2017-08-02T05:12:51.588Z,1014.68
2017-08-02T05:13:51.618Z,1014.67
2017-08-02T05:14:52.029Z,1014.66
2017-08-02T05:15:52.066Z,1014.7
2017-08-02T05:16:52.103Z,1014.71
2017-08-02T05:17:52.134Z,1014.74
2017-08-02T05:18:52.182Z,1014.77
2017-08-02T05:19:52.226Z,1014.72
2017-08-02T05:20:52.251Z,1014.77
2017-08-02T05:21:52.666Z,1014.75
2017-08-02T05:22:52.702Z,1014.69
2017-08-02T05:23:52.742Z,1014.76
2017-08-02T05:24:52.778Z,1014.81
2017-08-02T05:25:52.830Z,1014.76
2017-08-02T05:26:53.004Z,1014.8
2017-08-02T05:27:53.037Z,1014.8
2017-08-02T05:28:53.076Z,1014.75
2017-08-02T05:29:53.120Z,1014.82
2017-08-02T05:30:53.164Z,1014.81
2017-08-02T05:31:53.192Z,1014.82
2017-08-02T05:32:53.242Z,1014.74
2017-08-02T05:33:53.300Z,1014.77
2017-08-02T05:34:53.301Z,1014.76
2017-08-02T05:35:53.340Z,1014.73
2017-08-02T05:36:53.378Z,1014.76
2017-08-02T05:37:53.785Z,1014.75
2017-08-02T05:38:54.214Z,1014.8
2017-08-02T05:39:54.254Z,1014.83
2017-08-02T05:40:54.288Z,1014.84
2017-08-02T05:41:54.329Z,1014.81
2017-08-02T05:42:54.365Z,1014.8
2017-08-02T05:43:54.401Z,1014.81
2017-08-02T05:44:54.554Z,1014.78
2017-08-02T05:45:54.595Z,1014.82
2017-08-02T05:46:54.628Z,1014.78
2017-08-02T05:47:54.671Z,1014.76
2017-08-02T05:48:54.706Z,1014.75
2017-08-02T05:49:54.839Z,1014.73
2017-08-02T05:50:54.880Z,1014.69
2017-08-02T05:51:54.914Z,1014.76
2017-08-02T05:52:54.953Z,1014.75
2017-08-02T05:53:54.995Z,1014.75
2017-08-02T05:54:55.031Z,1014.77
2017-08-02T05:55:55.073Z,1014.8
2017-08-02T05:56:55.513Z,1014.77
2017-08-02T05:57:55.547Z,1014.76
2017-08-02T05:58:55.587Z,1014.74
2017-08-02T05:59:55.625Z,1014.74
2017-08-02T06:00:55.668Z,1014.71
2017-08-02T06:01:55.754Z,1014.71
2017-08-02T06:02:55.741Z,1014.69
2017-08-02T06:03:56.191Z,1014.75
2017-08-02T06:04:56.614Z,1014.76
2017-08-02T06:05:56.647Z,1014.73
2017-08-02T06:06:56.692Z,1014.77
2017-08-02T06:07:56.730Z,1014.81
2017-08-02T06:08:56.772Z,1014.8
2017-08-02T06:09:56.811Z,1014.77
2017-08-02T06:10:56.847Z,1014.76
2017-08-02T06:11:56.888Z,1014.84
2017-08-02T06:12:57.319Z,1014.82
2017-08-02T06:13:57.363Z,1014.8
2017-08-02T06:14:57.401Z,1014.84
2017-08-02T06:15:57.438Z,1014.88
2017-08-02T06:16:57.480Z,1014.94
2017-08-02T06:17:57.520Z,1014.86
2017-08-02T06:18:57.555Z,1014.78
2017-08-02T06:19:57.597Z,1014.81
2017-08-02T06:20:57.774Z,1014.84
2017-08-02T06:21:58.119Z,1014.97
2017-08-02T06:22:58.622Z,1015.04
2017-08-02T06:23:58.639Z,1015.14
2017-08-02T06:24:58.685Z,1015.23
2017-08-02T06:25:58.723Z,1015.3
2017-08-02T06:26:58.755Z,1015.29
2017-08-02T06:27:58.800Z,1015.21
2017-08-02T06:28:58.837Z,1015.13
2017-08-02T06:29:58.877Z,1015.21
2017-08-02T06:30:58.918Z,1015.04
2017-08-02T06:31:58.962Z,1014.99
2017-08-02T06:32:59.398Z,1014.96
2017-08-02T06:33:59.442Z,1015.01
2017-08-02T06:34:59.904Z,1015.05
2017-08-02T06:35:59.954Z,1015.07
2017-08-02T06:37:00.013Z,1015.09
2017-08-02T06:38:00.029Z,1015.04
2017-08-02T06:39:00.099Z,1015.07
2017-08-02T06:40:00.904Z,1015.07
2017-08-02T06:41:01.094Z,1015.03
2017-08-02T06:42:01.143Z,1015.1
2017-08-02T06:43:01.175Z,1015.1
2017-08-02T06:44:01.224Z,1015.05
2017-08-02T06:45:01.285Z,1015.07
2017-08-02T06:46:01.294Z,1015.08
2017-08-02T06:47:01.344Z,1015.11
2017-08-02T06:48:01.379Z,1015.1
2017-08-02T06:49:01.413Z,1015.16
2017-08-02T06:50:01.464Z,1015.17
2017-08-02T06:51:01.496Z,1015.24
2017-08-02T06:52:01.530Z,1015.26
2017-08-02T06:53:01.572Z,1015.25
2017-08-02T06:54:01.615Z,1015.29
2017-08-02T06:55:01.650Z,1015.32
2017-08-02T06:56:01.751Z,1015.26
2017-08-02T06:57:01.737Z,1015.31
2017-08-02T06:58:01.766Z,1015.25
2017-08-02T06:59:02.249Z,1015.21
2017-08-02T07:00:02.288Z,1015.23
2017-08-02T07:01:02.329Z,1015.26
2017-08-02T07:02:02.370Z,1015.33
2017-08-02T07:03:02.409Z,1015.41
2017-08-02T07:04:02.447Z,1015.41
2017-08-02T07:05:02.485Z,1015.45
2017-08-02T07:06:02.534Z,1015.45
2017-08-02T07:07:02.564Z,1015.51
2017-08-02T07:08:02.696Z,1015.5
2017-08-02T07:09:02.730Z,1015.49
2017-08-02T07:10:02.773Z,1015.5
2017-08-02T07:11:02.811Z,1015.42
2017-08-02T07:12:02.853Z,1015.45
2017-08-02T07:13:02.886Z,1015.42
2017-08-02T07:14:03.012Z,1015.49
2017-08-02T07:15:03.051Z,1015.38
2017-08-02T07:16:03.092Z,1015.4
2017-08-02T07:17:03.130Z,1015.32
2017-08-02T07:18:03.173Z,1015.39
2017-08-02T07:19:03.607Z,1015.41
2017-08-02T07:20:03.644Z,1015.5
2017-08-02T07:21:03.686Z,1015.57
2017-08-02T07:22:03.756Z,1015.53
2017-08-02T07:23:03.929Z,1015.46
2017-08-02T07:24:03.949Z,1015.42
2017-08-02T07:25:04.075Z,1015.46
2017-08-02T07:26:04.172Z,1015.5
2017-08-02T07:27:04.172Z,1015.43
2017-08-02T07:28:04.682Z,1015.45
2017-08-02T07:29:04.723Z,1015.46
2017-08-02T07:30:04.926Z,1015.46
2017-08-02T07:31:04.911Z,1015.53
2017-08-02T07:32:04.949Z,1015.57
2017-08-02T07:33:05.005Z,1015.51
2017-08-02T07:34:05.032Z,1015.62
2017-08-02T07:35:05.071Z,1015.55
2017-08-02T07:36:05.115Z,1015.48
2017-08-02T07:37:05.261Z,1015.37
2017-08-02T07:38:05.196Z,1015.43
2017-08-02T07:39:05.238Z,1015.46
2017-08-02T07:40:05.659Z,1015.38
2017-08-02T07:41:05.722Z,1015.44
2017-08-02T07:42:05.734Z,1015.52
2017-08-02T07:43:05.782Z,1015.5
2017-08-02T07:44:05.823Z,1015.55
2017-08-02T07:45:05.862Z,1015.49
2017-08-02T07:46:05.907Z,1015.57
2017-08-02T07:47:06.428Z,1015.61
2017-08-02T07:48:06.902Z,1015.72
2017-08-02T07:49:06.917Z,1015.64
2017-08-02T07:50:06.953Z,1015.67
2017-08-02T07:51:06.993Z,1015.7
2017-08-02T07:52:07.033Z,1015.89
2017-08-02T07:53:07.323Z,1015.82
2017-08-02T07:54:07.361Z,1015.84
2017-08-02T07:55:07.533Z,1016.08
2017-08-02T07:56:07.476Z,1015.97
2017-08-02T07:57:07.488Z,1015.92
2017-08-02T07:58:07.540Z,1015.81
2017-08-02T07:59:07.574Z,1015.81
2017-08-02T08:00:07.625Z,1015.86
2017-08-02T08:01:07.655Z,1015.91
2017-08-02T08:02:07.699Z,1016.18
2017-08-02T08:03:07.747Z,1015.99
2017-08-02T08:04:07.789Z,1016.17
2017-08-02T08:05:07.837Z,1016.2
2017-08-02T08:06:07.872Z,1016.21
2017-08-02T08:07:07.915Z,1016.13
2017-08-02T08:08:07.963Z,1015.95
2017-08-02T08:09:08.008Z,1015.85
2017-08-02T08:10:08.051Z,1016.5
2017-08-02T08:11:08.093Z,1016.53
2017-08-02T08:12:08.139Z,1016.25
2017-08-02T08:13:08.567Z,1016.07
2017-08-02T08:14:09.020Z,1015.95
2017-08-02T08:15:09.064Z,1015.85
2017-08-02T08:16:09.104Z,1015.77
2017-08-02T08:17:09.167Z,1015.74
2017-08-02T08:18:09.199Z,1015.76
2017-08-02T08:19:09.243Z,1015.84
2017-08-02T08:20:09.338Z,1015.82
2017-08-02T08:21:09.337Z,1015.85
2017-08-02T08:22:09.470Z,1015.88
2017-08-02T08:23:09.430Z,1015.85
2017-08-02T08:24:09.479Z,1016.11
2017-08-02T08:25:09.503Z,1015.89
2017-08-02T08:26:09.991Z,1016.13
2017-08-02T08:27:10.037Z,1016.07
2017-08-02T08:28:10.077Z,1015.87
2017-08-02T08:29:10.122Z,1015.88
2017-08-02T08:30:10.162Z,1015.87
2017-08-02T08:31:10.202Z,1015.88
2017-08-02T08:32:10.244Z,1015.92
2017-08-02T08:33:10.294Z,1015.92
2017-08-02T08:34:10.334Z,1015.94
2017-08-02T08:35:10.374Z,1015.95
2017-08-02T08:36:10.413Z,1015.93
2017-08-02T08:37:10.457Z,1015.93
2017-08-02T08:38:10.497Z,1015.96
2017-08-02T08:39:10.539Z,1016.03
2017-08-02T08:40:10.588Z,1016.04
2017-08-02T08:41:10.630Z,1016.11
2017-08-02T08:42:10.675Z,1016.08
2017-08-02T08:43:10.705Z,1016.11
2017-08-02T08:44:10.749Z,1016.18
2017-08-02T08:45:11.495Z,1016.14
2017-08-02T08:46:11.531Z,1016.21
2017-08-02T08:47:11.641Z,1016.28
2017-08-02T08:48:11.687Z,1016.33
2017-08-02T08:49:11.733Z,1016.32
2017-08-02T08:50:11.766Z,1016.82
2017-08-02T08:51:11.806Z,1016.56
2017-08-02T08:52:11.846Z,1016.47
2017-08-02T08:53:11.881Z,1016.45
2017-08-02T08:54:11.929Z,1016.35
2017-08-02T08:55:11.970Z,1016.73
2017-08-02T08:56:12.013Z,1016.38
2017-08-02T08:57:12.054Z,1017.02
2017-08-02T08:58:12.100Z,1016.9
2017-08-02T08:59:12.139Z,1016.81
2017-08-02T09:00:12.177Z,1016.86
2017-08-02T09:01:12.306Z,1016.87
2017-08-02T09:02:12.466Z,1016.84
2017-08-02T09:03:12.907Z,1016.73
2017-08-02T09:04:13.377Z,1016.8
2017-08-02T09:05:13.418Z,1016.83
2017-08-02T09:06:13.460Z,1016.78
2017-08-02T09:07:13.868Z,1016.79
2017-08-02T09:08:13.916Z,1016.74
2017-08-02T09:09:13.962Z,1016.77
2017-08-02T09:10:14.376Z,1016.89
2017-08-02T09:11:14.411Z,1016.9
2017-08-02T09:12:14.507Z,1016.92
2017-08-02T09:13:14.552Z,1016.81
2017-08-02T09:14:14.605Z,1016.43
2017-08-02T09:15:14.745Z,1016.28
2017-08-02T09:16:15.168Z,1016.34
2017-08-02T09:17:15.629Z,1016.24
2017-08-02T09:18:16.060Z,1016.23
2017-08-02T09:19:16.109Z,1016.25
2017-08-02T09:20:16.153Z,1016.31
2017-08-02T09:21:16.593Z,1016.4
2017-08-02T09:22:16.713Z,1016.6
2017-08-02T09:23:17.124Z,1016.56
2017-08-02T09:24:17.163Z,1016.4
2017-08-02T09:25:17.207Z,1016.37
2017-08-02T09:26:17.273Z,1016.4
2017-08-02T09:27:17.298Z,1016.43
2017-08-02T09:28:17.344Z,1016.5
2017-08-02T09:29:17.391Z,1016.68
2017-08-02T09:30:17.540Z,1016.47
2017-08-02T09:31:17.583Z,1016.5
2017-08-02T09:32:17.771Z,1016.66
2017-08-02T09:33:17.997Z,1016.48
2017-08-02T09:34:18.454Z,1016.72
2017-08-02T09:35:18.963Z,1017.14
2017-08-02T09:36:19.007Z,1016.62
2017-08-02T09:37:19.138Z,1017.04
2017-08-02T09:38:19.183Z,1016.52
2017-08-02T09:39:19.633Z,1017.22
2017-08-02T09:40:19.673Z,1017.17
2017-08-02T09:41:19.724Z,1017.21
2017-08-02T09:42:19.771Z,1017.28
2017-08-02T09:43:19.817Z,1017.31
2017-08-02T09:44:19.860Z,1017.29
2017-08-02T09:45:19.904Z,1017.25
2017-08-02T09:46:20.363Z,1017.21
2017-08-02T09:47:20.806Z,1017.21
2017-08-02T09:48:20.851Z,1017.17
2017-08-02T09:49:20.911Z,1016.91
2017-08-02T09:50:20.995Z,1016.35
2017-08-02T09:51:20.996Z,1017.15
2017-08-02T09:52:21.127Z,1016.77
2017-08-02T09:53:21.172Z,1016.62
2017-08-02T09:54:21.222Z,1016.54
2017-08-02T09:55:21.723Z,1016.56
2017-08-02T09:56:21.851Z,1016.59
2017-08-02T09:57:21.883Z,1016.67
2017-08-02T09:58:22.068Z,1016.5
2017-08-02T09:59:22.110Z,1016.55
2017-08-02T10:00:22.156Z,1016.99
2017-08-02T10:01:22.203Z,1017.17
2017-08-02T10:02:22.405Z,1017.09
2017-08-02T10:03:22.463Z,1016.89
2017-08-02T10:04:22.585Z,1016.26
2017-08-02T10:05:22.682Z,1016.24
2017-08-02T10:06:22.681Z,1016.3
2017-08-02T10:07:22.721Z,1016.58
2017-08-02T10:08:22.771Z,1016.65
2017-08-02T10:09:23.218Z,1016.87
2017-08-02T10:10:23.262Z,1017.15
2017-08-02T10:11:23.308Z,1016.95
2017-08-02T10:12:23.449Z,1017.12
2017-08-02T10:13:23.500Z,1017.18
2017-08-02T10:14:23.542Z,1017.15
2017-08-02T10:15:23.676Z,1017.31
2017-08-02T10:16:24.117Z,1017.03
2017-08-02T10:17:24.233Z,1017.15
2017-08-02T10:18:24.280Z,1017.04
2017-08-02T10:19:24.324Z,1017.14
2017-08-02T10:20:24.375Z,1016.8
2017-08-02T10:21:24.421Z,1017.2
2017-08-02T10:22:24.829Z,1017.37
2017-08-02T10:23:24.948Z,1017.39
2017-08-02T10:24:25.074Z,1017.27
2017-08-02T10:25:25.122Z,1017.07
2017-08-02T10:26:25.168Z,1017.05
2017-08-02T10:27:25.211Z,1016.82
2017-08-02T10:28:25.257Z,1016.69
2017-08-02T10:29:25.309Z,1016.66
2017-08-02T10:30:25.355Z,1016.29
2017-08-02T10:31:25.397Z,1016.49
2017-08-02T10:32:25.848Z,1016.61
2017-08-02T10:33:25.898Z,1016.65
2017-08-02T10:34:25.945Z,1016.74
2017-08-02T10:35:25.988Z,1017.26
2017-08-02T10:36:26.036Z,1017.48
2017-08-02T10:37:26.079Z,1017.55
2017-08-02T10:38:26.126Z,1017.74
2017-08-02T10:39:26.172Z,1017.57
2017-08-02T10:40:26.289Z,1016.2
2017-08-02T10:41:26.337Z,1016.12
2017-08-02T10:42:26.776Z,1016.22
2017-08-02T10:43:26.820Z,1016.07
2017-08-02T10:44:26.866Z,1016.06
2017-08-02T10:45:26.964Z,1016.05
2017-08-02T10:46:27.008Z,1016.09
2017-08-02T10:47:27.054Z,1016.17
2017-08-02T10:48:27.096Z,1016.86
2017-08-02T10:49:27.142Z,1016.52
2017-08-02T10:50:27.186Z,1016.17
2017-08-02T10:51:27.227Z,1016.15
2017-08-02T10:52:27.276Z,1016.12
2017-08-02T10:53:27.315Z,1016.08
2017-08-02T10:54:27.359Z,1016.05
2017-08-02T10:55:27.404Z,1016.04
2017-08-02T10:56:27.444Z,1016.11
2017-08-02T10:57:27.490Z,1016.14
2017-08-02T10:58:27.530Z,1016.13
2017-08-02T10:59:27.979Z,1016.07
2017-08-02T11:00:28.018Z,1016.13
2017-08-02T11:01:28.069Z,1016.17
2017-08-02T11:02:28.102Z,1016.15
2017-08-02T11:03:28.143Z,1016.15
2017-08-02T11:04:28.188Z,1016.16
2017-08-02T11:05:28.227Z,1016.13
2017-08-02T11:06:28.275Z,1016.13
2017-08-02T11:07:28.687Z,1016.28
2017-08-02T11:08:28.731Z,1016.39
2017-08-02T11:09:28.772Z,1016.39
2017-08-02T11:10:28.814Z,1016.34
2017-08-02T11:11:29.266Z,1016.34
2017-08-02T11:12:29.306Z,1016.41
2017-08-02T11:13:29.348Z,1016.47
2017-08-02T11:14:29.387Z,1016.47
2017-08-02T11:15:29.503Z,1016.43
2017-08-02T11:16:29.538Z,1016.39
2017-08-02T11:17:29.587Z,1016.38
2017-08-02T11:18:29.626Z,1016.44
2017-08-02T11:19:30.062Z,1016.36
2017-08-02T11:20:30.105Z,1016.42
2017-08-02T11:21:30.144Z,1016.46
2017-08-02T11:22:30.184Z,1016.43
2017-08-02T11:23:30.228Z,1016.45
2017-08-02T11:24:30.275Z,1016.33
2017-08-02T11:25:30.312Z,1016.36
2017-08-02T11:26:30.363Z,1016.26
2017-08-02T11:27:30.395Z,1016.24
2017-08-02T11:28:30.557Z,1016.26
2017-08-02T11:29:30.601Z,1016.25
2017-08-02T11:30:30.641Z,1016.24
2017-08-02T11:31:30.687Z,1016.33
2017-08-02T11:32:30.724Z,1016.29
2017-08-02T11:33:31.171Z,1016.28
2017-08-02T11:34:31.209Z,1016.23
2017-08-02T11:35:31.251Z,1016.17
2017-08-02T11:36:31.299Z,1016.26
2017-08-02T11:37:31.332Z,1016.2
2017-08-02T11:38:31.820Z,1016.16
2017-08-02T11:39:31.842Z,1016.19
2017-08-02T11:40:31.855Z,1016.14
2017-08-02T11:41:31.898Z,1016.13
2017-08-02T11:42:32.000Z,1016.17
2017-08-02T11:43:32.422Z,1016.17
2017-08-02T11:44:32.714Z,1016.18
2017-08-02T11:45:32.502Z,1016.27
2017-08-02T11:46:32.549Z,1016.19
2017-08-02T11:47:33.243Z,1016.12
2017-08-02T11:48:33.281Z,1016.15
2017-08-02T11:49:33.321Z,1016.07
2017-08-02T11:50:33.364Z,1016.02
2017-08-02T11:51:33.402Z,1015.93
2017-08-02T11:52:33.447Z,1015.93
2017-08-02T11:53:33.575Z,1015.89
2017-08-02T11:54:33.616Z,1015.92
2017-08-02T11:55:33.662Z,1015.93
2017-08-02T11:56:33.700Z,1015.91
2017-08-02T11:57:33.745Z,1015.91
2017-08-02T11:58:33.784Z,1015.97
2017-08-02T11:59:34.239Z,1015.9
2017-08-02T12:00:34.282Z,1015.9
2017-08-02T12:01:34.477Z,1015.85
2017-08-02T12:02:34.978Z,1015.99
2017-08-02T12:03:35.021Z,1015.96
2017-08-02T12:04:35.448Z,1015.92
2017-08-02T12:05:35.491Z,1015.9
2017-08-02T12:06:35.532Z,1015.85
2017-08-02T12:07:35.973Z,1015.92
2017-08-02T12:08:36.017Z,1015.9
2017-08-02T12:09:36.054Z,1015.85